Terminal Aerodrome Forecast
Issued by NWS

Home | Current Version | Previous Version | Text Only | Print | Product List | Glossary On
Versions: 1 2 3 4 5 6 7 8 9 10 11 12 13 14 15 16 17 18 19 20 21 22
000
FTUS45 KFGZ 201300 AAA
TAFPGA
TAF AMD
KPGA 201344Z 2014/2112 VRB02KT P6SM SCT015 BKN200
      TEMPO 2014/2016 4SM BR BKN015
     FM201600 VRB03KT P6SM SCT200
     FM210200 VRB06KT P6SM BKN080 BKN200=

USA.gov is the U.S. government's official web portal to all federal, state and local government web resources and services.